createdAt,value
2016-12-21T00:00:50.241Z,95.5
2016-12-21T00:01:50.203Z,95.4
2016-12-21T00:02:50.157Z,95.21
2016-12-21T00:03:50.113Z,95.21
2016-12-21T00:04:50.073Z,95.03
2016-12-21T00:05:49.728Z,95.31
2016-12-21T00:06:49.989Z,95.4
2016-12-21T00:07:49.946Z,95.03
2016-12-21T00:08:49.903Z,95.21
2016-12-21T00:09:49.863Z,95.12
2016-12-21T00:10:49.820Z,95.07
2016-12-21T00:11:49.779Z,95.07
2016-12-21T00:12:49.735Z,95.4
2016-12-21T00:13:49.719Z,95.45
2016-12-21T00:14:49.651Z,95.45
2016-12-21T00:15:49.609Z,95.64
2016-12-21T00:16:49.264Z,95.31
2016-12-21T00:17:49.522Z,95.45
2016-12-21T00:18:49.481Z,95.45
2016-12-21T00:19:49.444Z,95.07
2016-12-21T00:20:49.095Z,95.45
2016-12-21T00:21:49.356Z,95.07
2016-12-21T00:22:49.312Z,95.31
2016-12-21T00:23:49.272Z,95.07
2016-12-21T00:24:49.227Z,94.65
2016-12-21T00:25:49.213Z,94.65
2016-12-21T00:26:49.144Z,95.03
2016-12-21T00:27:49.102Z,94.84
2016-12-21T00:28:48.757Z,94.74
2016-12-21T00:29:49.016Z,94.74
2016-12-21T00:30:48.974Z,95.21
2016-12-21T00:31:48.930Z,95.21
2016-12-21T00:32:48.890Z,95.4
2016-12-21T00:33:48.852Z,95.21
2016-12-21T00:34:48.805Z,95.21
2016-12-21T00:35:48.461Z,95.21
2016-12-21T00:36:48.720Z,95.12
2016-12-21T00:37:48.681Z,95.31
2016-12-21T00:38:48.334Z,95.4
2016-12-21T00:39:48.596Z,95.4
2016-12-21T00:40:48.549Z,95.03
2016-12-21T00:41:48.511Z,95.03
2016-12-21T00:42:48.465Z,95.17
2016-12-21T00:43:48.424Z,95.12
2016-12-21T00:44:48.382Z,95.12
2016-12-21T00:45:48.039Z,95.12
2016-12-21T00:46:48.295Z,95.12
2016-12-21T00:47:48.256Z,95.26
2016-12-21T00:48:48.213Z,95.03
2016-12-21T00:49:48.171Z,95.07
2016-12-21T00:50:47.831Z,94.98
2016-12-21T00:51:48.086Z,95.26
2016-12-21T00:52:48.047Z,95.12
2016-12-21T00:53:47.699Z,95.26
2016-12-21T00:54:47.660Z,95.03
2016-12-21T00:55:47.615Z,95.31
2016-12-21T00:56:47.877Z,95.4
2016-12-21T00:57:47.832Z,95.4
2016-12-21T00:58:47.489Z,95.31
2016-12-21T00:59:47.747Z,95.4
2016-12-21T01:00:47.708Z,95.12
2016-12-21T01:01:47.360Z,95.03
2016-12-21T01:02:47.622Z,95.12
2016-12-21T01:03:47.582Z,95.12
2016-12-21T01:04:47.535Z,95.03
2016-12-21T01:05:47.496Z,95.03
2016-12-21T01:06:47.451Z,95.12
2016-12-21T01:07:47.410Z,95.12
2016-12-21T01:08:47.065Z,95.12
2016-12-21T01:09:47.324Z,95.03
2016-12-21T01:10:47.282Z,95.4
2016-12-21T01:11:47.238Z,95.21
2016-12-21T01:12:46.896Z,95.4
2016-12-21T01:13:47.154Z,95.21
2016-12-21T01:14:47.114Z,95.4
2016-12-21T01:15:47.069Z,95.4
2016-12-21T01:16:46.724Z,95.21
2016-12-21T01:17:46.986Z,95.12
2016-12-21T01:18:46.951Z,94.84
2016-12-21T01:19:46.900Z,95.03
2016-12-21T01:20:46.856Z,95.4
2016-12-21T01:21:46.815Z,95.4
2016-12-21T01:22:46.773Z,95.4
2016-12-21T01:23:46.731Z,95.4
2016-12-21T01:24:46.688Z,95.4
2016-12-21T01:25:46.345Z,95.4
2016-12-21T01:26:46.302Z,95.59
2016-12-21T01:27:46.561Z,95.59
2016-12-21T01:28:46.217Z,95.4
2016-12-21T01:29:46.480Z,95.4
2016-12-21T01:30:46.434Z,95.4
2016-12-21T01:31:46.391Z,95.21
2016-12-21T01:32:46.353Z,95.59
2016-12-21T01:33:46.307Z,95.59
2016-12-21T01:34:45.963Z,95.31
2016-12-21T01:35:45.921Z,95.4
2016-12-21T01:36:46.183Z,95.4
2016-12-21T01:37:46.139Z,95.03
2016-12-21T01:38:46.099Z,95.21
2016-12-21T01:39:45.751Z,95.31
2016-12-21T01:40:46.010Z,94.93
2016-12-21T01:41:45.969Z,95.4
2016-12-21T01:42:45.926Z,95.31
2016-12-21T01:43:45.581Z,95.4
2016-12-21T01:44:45.841Z,95.31
2016-12-21T01:45:45.805Z,95.31
2016-12-21T01:46:45.763Z,95.69
2016-12-21T01:47:45.412Z,95.78
2016-12-21T01:48:45.674Z,96.26
2016-12-21T01:49:45.627Z,95.69
2016-12-21T01:50:45.593Z,95.5
2016-12-21T01:51:45.547Z,95.59
2016-12-21T01:52:45.503Z,95.69
2016-12-21T01:53:45.459Z,95.4
2016-12-21T01:54:45.116Z,95.5
2016-12-21T01:55:45.375Z,95.4
2016-12-21T01:56:45.336Z,96.07
2016-12-21T01:57:45.289Z,95.88
2016-12-21T01:58:45.246Z,95.97
2016-12-21T01:59:45.211Z,95.88
2016-12-21T02:00:45.164Z,95.59
2016-12-21T02:01:45.122Z,95.59
2016-12-21T02:02:44.780Z,95.78
2016-12-21T02:03:45.033Z,95.97
2016-12-21T02:04:45.022Z,95.78
2016-12-21T02:05:44.949Z,95.78
2016-12-21T02:06:44.908Z,95.78
2016-12-21T02:07:44.868Z,95.12
2016-12-21T02:08:44.825Z,95.31
2016-12-21T02:09:44.782Z,95.4
2016-12-21T02:10:44.743Z,95.21
2016-12-21T02:11:44.393Z,95.4
2016-12-21T02:12:44.653Z,95.5
2016-12-21T02:13:44.611Z,95.59
2016-12-21T02:14:44.569Z,95.78
2016-12-21T02:15:44.532Z,95.78
2016-12-21T02:16:44.486Z,95.78
2016-12-21T02:17:44.439Z,95.78
2016-12-21T02:18:44.400Z,95.69
2016-12-21T02:19:44.357Z,96.07
2016-12-21T02:20:44.014Z,95.88
2016-12-21T02:21:44.271Z,95.69
2016-12-21T02:22:44.231Z,95.88
2016-12-21T02:23:43.884Z,95.78
2016-12-21T02:24:43.848Z,95.97
2016-12-21T02:25:44.099Z,95.97
2016-12-21T02:26:44.057Z,96.16
2016-12-21T02:27:43.716Z,95.97
2016-12-21T02:28:43.970Z,95.97
2016-12-21T02:29:43.932Z,96.26
2016-12-21T02:30:43.887Z,96.07
2016-12-21T02:31:43.848Z,96.07
2016-12-21T02:32:43.803Z,96.16
2016-12-21T02:33:43.762Z,96.07
2016-12-21T02:34:43.418Z,96.07
2016-12-21T02:35:43.673Z,96.16
2016-12-21T02:36:43.632Z,95.97
2016-12-21T02:37:43.593Z,96.07
2016-12-21T02:38:43.549Z,96.26
2016-12-21T02:39:43.208Z,96.07
2016-12-21T02:40:43.467Z,96.35
2016-12-21T02:41:43.422Z,96.07
2016-12-21T02:42:43.077Z,96.07
2016-12-21T02:43:43.336Z,96.16
2016-12-21T02:44:43.296Z,96.35
2016-12-21T02:45:42.950Z,95.78
2016-12-21T02:46:43.206Z,95.78
2016-12-21T02:47:43.164Z,95.97
2016-12-21T02:48:43.126Z,95.59
2016-12-21T02:49:43.080Z,95.97
2016-12-21T02:50:43.036Z,95.88
2016-12-21T02:51:42.996Z,95.69
2016-12-21T02:52:42.956Z,95.97
2016-12-21T02:53:42.910Z,96.16
2016-12-21T02:54:42.866Z,95.78
2016-12-21T02:55:42.523Z,95.97
2016-12-21T02:56:42.784Z,95.88
2016-12-21T02:57:42.438Z,96.16
2016-12-21T02:58:42.699Z,96.07
2016-12-21T02:59:42.656Z,96.07
2016-12-21T03:00:42.613Z,96.35
2016-12-21T03:01:42.574Z,96.35
2016-12-21T03:02:42.532Z,96.35
2016-12-21T03:03:42.486Z,95.78
2016-12-21T03:04:42.441Z,95.88
2016-12-21T03:05:42.400Z,95.78
2016-12-21T03:06:42.056Z,95.88
2016-12-21T03:07:42.318Z,96.07
2016-12-21T03:08:42.276Z,95.97
2016-12-21T03:09:42.241Z,95.97
2016-12-21T03:10:42.188Z,95.97
2016-12-21T03:11:41.845Z,96.16
2016-12-21T03:12:41.808Z,95.78
2016-12-21T03:13:42.063Z,95.78
2016-12-21T03:14:42.017Z,95.78
2016-12-21T03:15:41.672Z,96.16
2016-12-21T03:16:41.931Z,95.88
2016-12-21T03:17:41.890Z,96.35
2016-12-21T03:18:41.850Z,95.97
2016-12-21T03:19:41.808Z,96.16
2016-12-21T03:20:41.760Z,96.16
2016-12-21T03:21:41.722Z,95.78
2016-12-21T03:22:41.378Z,95.97
2016-12-21T03:23:41.633Z,95.88
2016-12-21T03:24:41.296Z,95.97
2016-12-21T03:25:41.551Z,96.07
2016-12-21T03:26:41.506Z,96.35
2016-12-21T03:27:41.463Z,95.88
2016-12-21T03:28:41.424Z,96.35
2016-12-21T03:29:41.378Z,96.35
2016-12-21T03:30:41.335Z,96.16
2016-12-21T03:31:41.323Z,95.97
2016-12-21T03:32:41.252Z,95.78
2016-12-21T03:33:41.211Z,96.07
2016-12-21T03:34:41.164Z,95.78
2016-12-21T03:35:41.121Z,95.88
2016-12-21T03:36:41.080Z,96.26
2016-12-21T03:37:41.038Z,96.45
2016-12-21T03:38:40.693Z,95.97
2016-12-21T03:39:40.951Z,95.88
2016-12-21T03:40:40.911Z,95.88
2016-12-21T03:41:40.870Z,95.88
2016-12-21T03:42:40.825Z,95.97
2016-12-21T03:43:40.478Z,96.35
2016-12-21T03:44:40.739Z,96.35
2016-12-21T03:45:40.702Z,96.45
2016-12-21T03:46:40.655Z,96.16
2016-12-21T03:47:40.309Z,96.07
2016-12-21T03:48:40.266Z,96.45
2016-12-21T03:49:40.528Z,96.26
2016-12-21T03:50:40.487Z,95.97
2016-12-21T03:51:40.442Z,96.54
2016-12-21T03:52:40.404Z,96.45
2016-12-21T03:53:40.355Z,96.16
2016-12-21T03:54:40.315Z,96.45
2016-12-21T03:55:39.969Z,95.97
2016-12-21T03:56:39.927Z,96.16
2016-12-21T03:57:39.906Z,96.35
2016-12-21T03:58:40.147Z,96.26
2016-12-21T03:59:40.104Z,96.26
2016-12-21T04:00:40.060Z,96.26
2016-12-21T04:01:40.017Z,95.97
2016-12-21T04:02:39.976Z,95.78
2016-12-21T04:03:39.932Z,96.16
2016-12-21T04:04:39.891Z,96.26
2016-12-21T04:05:39.847Z,95.97
2016-12-21T04:06:39.807Z,96.16
2016-12-21T04:07:39.760Z,96.16
2016-12-21T04:08:39.725Z,96.07
2016-12-21T04:09:39.676Z,96.07
2016-12-21T04:10:39.332Z,96.26
2016-12-21T04:11:39.591Z,96.07
2016-12-21T04:12:39.550Z,96.26
2016-12-21T04:13:39.206Z,95.88
2016-12-21T04:14:39.469Z,95.97
2016-12-21T04:15:39.420Z,95.88
2016-12-21T04:16:39.082Z,96.45
2016-12-21T04:17:39.338Z,95.88
2016-12-21T04:18:39.293Z,96.16
2016-12-21T04:19:39.251Z,96.35
2016-12-21T04:20:39.208Z,96.26
2016-12-21T04:21:39.169Z,96.64
2016-12-21T04:22:39.126Z,96.35
2016-12-21T04:23:39.080Z,96.64
2016-12-21T04:24:39.040Z,96.73
2016-12-21T04:25:38.996Z,96.35
2016-12-21T04:26:38.952Z,95.97
2016-12-21T04:27:38.912Z,95.88
2016-12-21T04:28:38.870Z,95.97
2016-12-21T04:29:38.824Z,96.26
2016-12-21T04:30:38.782Z,96.16
2016-12-21T04:31:38.747Z,96.35
2016-12-21T04:32:38.698Z,96.35
2016-12-21T04:33:38.654Z,96.64
2016-12-21T04:34:38.325Z,96.83
2016-12-21T04:35:38.572Z,96.83
2016-12-21T04:36:38.527Z,96.73
2016-12-21T04:37:38.490Z,96.73
2016-12-21T04:38:38.443Z,96.45
2016-12-21T04:39:38.098Z,96.35
2016-12-21T04:40:38.360Z,96.35
2016-12-21T04:41:38.316Z,96.35
2016-12-21T04:42:38.275Z,96.73
2016-12-21T04:43:38.231Z,96.54
2016-12-21T04:44:38.190Z,96.83
2016-12-21T04:45:37.845Z,96.73
2016-12-21T04:46:37.802Z,96.64
2016-12-21T04:47:38.058Z,96.73
2016-12-21T04:48:37.720Z,96.83
2016-12-21T04:49:37.979Z,96.83
2016-12-21T04:50:37.937Z,96.35
2016-12-21T04:51:37.589Z,95.88
2016-12-21T04:52:37.850Z,95.88
2016-12-21T04:53:37.805Z,96.35
2016-12-21T04:54:37.764Z,96.07
2016-12-21T04:55:37.720Z,96.16
2016-12-21T04:56:37.680Z,96.45
2016-12-21T04:57:37.637Z,96.45
2016-12-21T04:58:37.592Z,96.45
2016-12-21T04:59:37.549Z,96.45
2016-12-21T05:00:37.507Z,96.16
2016-12-21T05:01:37.466Z,95.88
2016-12-21T05:02:37.124Z,95.88
2016-12-21T05:03:37.380Z,95.88
2016-12-21T05:04:37.345Z,95.78
2016-12-21T05:05:36.998Z,95.97
2016-12-21T05:06:36.947Z,96.35
2016-12-21T05:07:37.211Z,96.45
2016-12-21T05:08:36.863Z,96.45
2016-12-21T05:09:36.819Z,96.54
2016-12-21T05:10:37.082Z,96.35
2016-12-21T05:11:37.037Z,96.54
2016-12-21T05:12:36.695Z,96.26
2016-12-21T05:13:36.952Z,96.26
2016-12-21T05:14:36.911Z,96.35
2016-12-21T05:15:36.869Z,96.54
2016-12-21T05:16:36.826Z,96.83
2016-12-21T05:17:36.783Z,96.73
2016-12-21T05:18:36.740Z,97.01
2016-12-21T05:19:36.699Z,96.83
2016-12-21T05:20:36.654Z,96.64
2016-12-21T05:21:36.612Z,96.54
2016-12-21T05:22:36.569Z,96.45
2016-12-21T05:23:36.522Z,96.45
2016-12-21T05:24:36.181Z,96.73
2016-12-21T05:25:36.440Z,96.92
2016-12-21T05:26:36.399Z,97.49
2016-12-21T05:27:36.356Z,97.01
2016-12-21T05:28:36.010Z,97.3
2016-12-21T05:29:36.271Z,97.39
2016-12-21T05:30:35.925Z,97.3
2016-12-21T05:31:35.882Z,97.3
2016-12-21T05:32:35.839Z,97.01
2016-12-21T05:33:36.100Z,97.3
2016-12-21T05:34:36.060Z,97.2
2016-12-21T05:35:36.012Z,97.3
2016-12-21T05:36:35.971Z,97.11
2016-12-21T05:37:35.627Z,97.11
2016-12-21T05:38:35.886Z,96.92
2016-12-21T05:39:35.539Z,96.92
2016-12-21T05:40:35.801Z,97.2
2016-12-21T05:41:35.457Z,97.11
2016-12-21T05:42:35.714Z,97.11
2016-12-21T05:43:35.674Z,97.11
2016-12-21T05:44:35.630Z,97.2
2016-12-21T05:45:35.286Z,97.39
2016-12-21T05:46:35.244Z,97.2
2016-12-21T05:47:35.505Z,97.2
2016-12-21T05:48:35.462Z,96.83
2016-12-21T05:49:35.419Z,97.67
2016-12-21T05:50:35.374Z,97.39
2016-12-21T05:51:35.332Z,97.96
2016-12-21T05:52:35.289Z,97.77
2016-12-21T05:53:35.251Z,97.58
2016-12-21T05:54:35.203Z,97.49
2016-12-21T05:55:35.160Z,97.58
2016-12-21T05:56:35.118Z,97.49
2016-12-21T05:57:34.774Z,97.58
2016-12-21T05:58:35.031Z,97.58
2016-12-21T05:59:34.991Z,97.77
2016-12-21T06:00:34.953Z,97.67
2016-12-21T06:01:34.912Z,97.49
2016-12-21T06:02:34.864Z,97.96
2016-12-21T06:03:34.818Z,97.49
2016-12-21T06:04:34.778Z,97.3
2016-12-21T06:05:34.733Z,97.58
2016-12-21T06:06:34.388Z,97.3
2016-12-21T06:07:34.649Z,97.39
2016-12-21T06:08:34.605Z,97.77
2016-12-21T06:09:34.564Z,97.49
2016-12-21T06:10:34.525Z,97.67
2016-12-21T06:11:34.481Z,97.67
2016-12-21T06:12:34.135Z,97.3
2016-12-21T06:13:34.395Z,97.86
2016-12-21T06:14:34.351Z,97.11
2016-12-21T06:15:34.309Z,97.39
2016-12-21T06:16:34.269Z,97.2
2016-12-21T06:17:34.221Z,97.49
2016-12-21T06:18:34.181Z,97.11
2016-12-21T06:19:33.834Z,97.2
2016-12-21T06:20:34.094Z,97.67
2016-12-21T06:21:34.055Z,97.86
2016-12-21T06:22:34.010Z,97.58
2016-12-21T06:23:33.972Z,97.11
2016-12-21T06:24:33.924Z,97.11
2016-12-21T06:25:33.580Z,97.39
2016-12-21T06:26:33.838Z,97.2
2016-12-21T06:27:33.494Z,97.11
2016-12-21T06:28:33.751Z,97.49
2016-12-21T06:29:33.708Z,97.58
2016-12-21T06:30:33.665Z,97.58
2016-12-21T06:31:33.627Z,97.58
2016-12-21T06:32:33.585Z,97.67
2016-12-21T06:33:33.542Z,97.86
2016-12-21T06:34:33.497Z,97.58
2016-12-21T06:35:33.456Z,97.77
2016-12-21T06:36:33.109Z,97.49
2016-12-21T06:37:33.373Z,97.67
2016-12-21T06:38:33.360Z,97.11
2016-12-21T06:39:33.283Z,97.39
2016-12-21T06:40:32.938Z,97.86
2016-12-21T06:41:32.896Z,97.86
2016-12-21T06:42:33.156Z,97.11
2016-12-21T06:43:33.119Z,97.67
2016-12-21T06:44:33.072Z,97.58
2016-12-21T06:45:33.030Z,97.67
2016-12-21T06:46:32.988Z,97.58
2016-12-21T06:47:32.947Z,97.77
2016-12-21T06:48:32.900Z,97.67
2016-12-21T06:49:32.858Z,97.77
2016-12-21T06:50:32.821Z,98.14
2016-12-21T06:51:32.772Z,98.14
2016-12-21T06:52:32.728Z,97.86
2016-12-21T06:53:32.688Z,97.86
2016-12-21T06:54:32.643Z,97.67
2016-12-21T06:55:32.605Z,97.67
2016-12-21T06:56:32.563Z,97.96
2016-12-21T06:57:32.518Z,98.05
2016-12-21T06:58:32.474Z,98.05
2016-12-21T06:59:32.432Z,97.96
2016-12-21T07:00:32.389Z,97.49
2016-12-21T07:01:32.047Z,97.96
2016-12-21T07:02:32.307Z,97.77
2016-12-21T07:03:32.260Z,97.96
2016-12-21T07:04:32.220Z,97.96
2016-12-21T07:05:32.184Z,98.14
2016-12-21T07:06:32.136Z,98.05
2016-12-21T07:07:32.091Z,97.77
2016-12-21T07:08:31.746Z,98.05
2016-12-21T07:09:32.007Z,97.86
2016-12-21T07:10:31.970Z,97.77
2016-12-21T07:11:31.921Z,98.05
2016-12-21T07:12:31.878Z,98.05
2016-12-21T07:13:31.534Z,97.86
2016-12-21T07:14:31.793Z,97.67
2016-12-21T07:15:31.750Z,97.77
2016-12-21T07:16:31.408Z,97.67
2016-12-21T07:17:31.664Z,97.67
2016-12-21T07:18:31.323Z,97.58
2016-12-21T07:19:31.583Z,97.67
2016-12-21T07:20:31.235Z,97.58
2016-12-21T07:21:31.494Z,97.58
2016-12-21T07:22:31.453Z,97.77
2016-12-21T07:23:31.409Z,97.86
2016-12-21T07:24:31.372Z,97.86
2016-12-21T07:25:31.324Z,97.58
2016-12-21T07:26:31.283Z,97.2
2016-12-21T07:27:31.243Z,97.67
2016-12-21T07:28:31.203Z,97.86
2016-12-21T07:29:31.151Z,97.2
2016-12-21T07:30:31.112Z,97.58
2016-12-21T07:31:30.772Z,97.86
2016-12-21T07:32:30.725Z,97.58
2016-12-21T07:33:30.984Z,97.58
2016-12-21T07:34:30.641Z,97.77
2016-12-21T07:35:30.898Z,98.24
2016-12-21T07:36:30.554Z,97.77
2016-12-21T07:37:30.816Z,98.05
2016-12-21T07:38:30.484Z,98.05
2016-12-21T07:39:30.729Z,97.96
2016-12-21T07:40:30.685Z,98.14
2016-12-21T07:41:30.342Z,97.96
2016-12-21T07:42:30.604Z,98.05
2016-12-21T07:43:30.561Z,98.24
2016-12-21T07:44:30.517Z,98.05
2016-12-21T07:45:30.172Z,97.77
2016-12-21T07:46:30.432Z,97.58
2016-12-21T07:47:30.389Z,97.58
2016-12-21T07:48:30.345Z,97.67
2016-12-21T07:49:30.003Z,97.86
2016-12-21T07:50:30.271Z,97.58
2016-12-21T07:51:29.918Z,97.58
2016-12-21T07:52:29.878Z,97.86
2016-12-21T07:53:30.133Z,97.49
2016-12-21T07:54:30.091Z,97.86
2016-12-21T07:55:30.052Z,97.49
2016-12-21T07:56:30.008Z,97.67
2016-12-21T07:57:29.968Z,97.58
2016-12-21T07:58:29.926Z,97.96
2016-12-21T07:59:29.880Z,97.11
2016-12-21T08:00:29.536Z,97.49
2016-12-21T08:01:29.795Z,97.49
2016-12-21T08:02:29.753Z,97.58
2016-12-21T08:03:29.712Z,97.2
2016-12-21T08:04:29.669Z,97.2
2016-12-21T08:05:29.626Z,97.2
2016-12-21T08:06:29.281Z,97.01
2016-12-21T08:07:29.543Z,97.01
2016-12-21T08:08:29.497Z,97.01
2016-12-21T08:09:29.458Z,97.2
2016-12-21T08:10:29.413Z,97.3
2016-12-21T08:11:29.372Z,97.49
2016-12-21T08:12:29.028Z,97.2
2016-12-21T08:13:29.290Z,97.3
2016-12-21T08:14:29.248Z,96.92
2016-12-21T08:15:29.201Z,97.11
2016-12-21T08:16:29.160Z,97.01
2016-12-21T08:17:28.816Z,97.01
2016-12-21T08:18:29.077Z,97.01
2016-12-21T08:19:29.031Z,97.01
2016-12-21T08:20:28.990Z,97.01
2016-12-21T08:21:28.951Z,97.01
2016-12-21T08:22:28.905Z,97.44
2016-12-21T08:23:28.562Z,97.16
2016-12-21T08:24:28.820Z,96.88
2016-12-21T08:25:28.784Z,96.97
2016-12-21T08:26:28.734Z,96.69
2016-12-21T08:27:28.390Z,96.69
2016-12-21T08:28:28.348Z,96.69
2016-12-21T08:29:28.307Z,96.5
2016-12-21T08:30:28.567Z,96.88
2016-12-21T08:31:28.521Z,96.5
2016-12-21T08:32:28.180Z,96.4
2016-12-21T08:33:28.442Z,96.4
2016-12-21T08:34:28.399Z,96.4
2016-12-21T08:35:28.054Z,96.31
2016-12-21T08:36:28.313Z,96.02
2016-12-21T08:37:27.965Z,95.93
2016-12-21T08:38:27.922Z,95.93
2016-12-21T08:39:27.881Z,96.21
2016-12-21T08:40:28.143Z,96.02
2016-12-21T08:41:28.100Z,96.02
2016-12-21T08:42:27.754Z,96.12
2016-12-21T08:43:28.013Z,96.12
2016-12-21T08:44:27.971Z,96.12
2016-12-21T08:45:27.627Z,95.93
2016-12-21T08:46:27.890Z,95.93
2016-12-21T08:47:27.845Z,95.83
2016-12-21T08:48:27.498Z,95.74
2016-12-21T08:49:27.760Z,96.21
2016-12-21T08:50:27.720Z,95.64
2016-12-21T08:51:27.372Z,95.26
2016-12-21T08:52:27.633Z,95.26
2016-12-21T08:53:27.288Z,95.36
2016-12-21T08:54:27.247Z,94.89
2016-12-21T08:55:27.505Z,95.64
2016-12-21T08:56:27.466Z,95.36
2016-12-21T08:57:27.421Z,95.26
2016-12-21T08:58:27.380Z,95.45
2016-12-21T08:59:27.335Z,94.89
2016-12-21T09:00:27.295Z,94.7
2016-12-21T09:01:27.251Z,94.6
2016-12-21T09:02:26.912Z,95.45
2016-12-21T09:03:26.865Z,95.36
2016-12-21T09:04:27.127Z,94.7
2016-12-21T09:05:26.784Z,94.7
2016-12-21T09:06:27.044Z,94.89
2016-12-21T09:07:27.004Z,94.89
2016-12-21T09:08:26.955Z,94.98
2016-12-21T09:09:26.922Z,94.89
2016-12-21T09:10:26.571Z,94.7
2016-12-21T09:11:26.832Z,94.89
2016-12-21T09:12:26.487Z,94.98
2016-12-21T09:13:26.747Z,94.89
2016-12-21T09:14:26.704Z,94.23
2016-12-21T09:15:26.664Z,95.07
2016-12-21T09:16:26.618Z,94.6
2016-12-21T09:17:26.578Z,94.23
2016-12-21T09:18:26.536Z,94.13
2016-12-21T09:19:26.194Z,94.32
2016-12-21T09:20:26.455Z,94.23
2016-12-21T09:21:26.410Z,93.85
2016-12-21T09:22:26.376Z,93.94
2016-12-21T09:23:26.023Z,94.23
2016-12-21T09:24:25.981Z,94.13
2016-12-21T09:25:26.242Z,94.04
2016-12-21T09:26:26.200Z,93.85
2016-12-21T09:27:26.158Z,93.47
2016-12-21T09:28:26.116Z,93.75
2016-12-21T09:29:26.074Z,93.47
2016-12-21T09:30:26.031Z,93.28
2016-12-21T09:31:25.995Z,93.47
2016-12-21T09:32:25.947Z,93.56
2016-12-21T09:33:25.605Z,93.28
2016-12-21T09:34:25.865Z,93.66
2016-12-21T09:35:25.820Z,93.09
2016-12-21T09:36:25.777Z,92.9
2016-12-21T09:37:25.438Z,92.99
2016-12-21T09:38:25.394Z,93.28
2016-12-21T09:39:25.657Z,93.28
2016-12-21T09:40:25.612Z,93.37
2016-12-21T09:41:25.569Z,93.28
2016-12-21T09:42:25.532Z,92.61
2016-12-21T09:43:25.185Z,92.71
2016-12-21T09:44:25.447Z,92.61
2016-12-21T09:45:25.407Z,92.61
2016-12-21T09:46:25.368Z,92.52
2016-12-21T09:47:25.321Z,92.52
2016-12-21T09:48:25.276Z,92.43
2016-12-21T09:49:24.961Z,92.66
2016-12-21T09:50:24.892Z,92.47
2016-12-21T09:51:25.152Z,92.29
2016-12-21T09:52:25.109Z,92.1
2016-12-21T09:53:25.069Z,92.19
2016-12-21T09:54:24.723Z,92.47
2016-12-21T09:55:24.986Z,92.38
2016-12-21T09:56:24.945Z,91.72
2016-12-21T09:57:24.901Z,91.77
2016-12-21T09:58:24.858Z,92.1
2016-12-21T09:59:24.518Z,92.1
2016-12-21T10:00:24.783Z,92.1
2016-12-21T10:01:24.434Z,91.43
2016-12-21T10:02:24.692Z,91.91
2016-12-21T10:03:24.350Z,91.81
2016-12-21T10:04:24.617Z,91.62
2016-12-21T10:05:24.267Z,91.62
2016-12-21T10:06:24.526Z,91.34
2016-12-21T10:07:24.483Z,91.34
2016-12-21T10:08:24.442Z,91.43
2016-12-21T10:09:24.099Z,91.43
2016-12-21T10:10:24.062Z,91.15
2016-12-21T10:11:24.316Z,91.05
2016-12-21T10:12:24.276Z,91.05
2016-12-21T10:13:24.230Z,91.34
2016-12-21T10:14:24.193Z,91.62
2016-12-21T10:15:23.853Z,90.67
2016-12-21T10:16:23.808Z,90.67
2016-12-21T10:17:24.068Z,90.86
2016-12-21T10:18:24.027Z,90.39
2016-12-21T10:19:23.684Z,90.77
2016-12-21T10:20:23.943Z,90.96
2016-12-21T10:21:23.599Z,90.67
2016-12-21T10:22:23.861Z,90.58
2016-12-21T10:23:23.518Z,90.48
2016-12-21T10:24:23.781Z,90.2
2016-12-21T10:25:23.737Z,90.39
2016-12-21T10:26:23.397Z,90.01
2016-12-21T10:27:23.654Z,89.92
2016-12-21T10:28:23.615Z,90.01
2016-12-21T10:29:23.574Z,90.2
2016-12-21T10:30:23.528Z,90.11
2016-12-21T10:31:23.187Z,89.73
2016-12-21T10:32:23.145Z,90.58
2016-12-21T10:33:23.409Z,89.82
2016-12-21T10:34:23.061Z,89.92
2016-12-21T10:35:23.022Z,90.01
2016-12-21T10:36:23.284Z,89.54
2016-12-21T10:37:23.241Z,90.11
2016-12-21T10:38:23.195Z,90.3
2016-12-21T10:39:23.158Z,89.63
2016-12-21T10:40:23.120Z,89.54
2016-12-21T10:41:22.776Z,89.44
2016-12-21T10:42:22.731Z,89.16
2016-12-21T10:43:22.997Z,89.73
2016-12-21T10:44:22.947Z,89.44
2016-12-21T10:45:22.909Z,89.44
2016-12-21T10:46:22.864Z,89.82
2016-12-21T10:47:22.826Z,89.73
2016-12-21T10:48:22.785Z,89.35
2016-12-21T10:49:22.447Z,88.87
2016-12-21T10:50:22.734Z,88.87
2016-12-21T10:51:22.662Z,88.87
2016-12-21T10:52:22.617Z,89.25
2016-12-21T10:53:22.579Z,88.78
2016-12-21T10:54:22.547Z,88.97
2016-12-21T10:55:22.511Z,89.44
2016-12-21T10:56:22.456Z,89.54
2016-12-21T10:57:22.119Z,89.35
2016-12-21T10:58:22.371Z,89.35
2016-12-21T10:59:22.329Z,89.06
2016-12-21T11:00:22.294Z,89.25
2016-12-21T11:01:22.245Z,88.59
2016-12-21T11:02:22.210Z,89.16
2016-12-21T11:03:22.167Z,89.06
2016-12-21T11:04:21.822Z,88.87
2016-12-21T11:05:21.780Z,88.97
2016-12-21T11:06:21.742Z,88.97
2016-12-21T11:07:21.999Z,88.97
2016-12-21T11:08:21.654Z,89.06
2016-12-21T11:09:21.916Z,89.16
2016-12-21T11:10:21.571Z,88.87
2016-12-21T11:11:21.836Z,88.21
2016-12-21T11:12:21.796Z,88.97
2016-12-21T11:13:21.752Z,88.49
2016-12-21T11:14:21.710Z,89.06
2016-12-21T11:15:21.669Z,89.16
2016-12-21T11:16:21.637Z,89.16
2016-12-21T11:17:21.588Z,88.97
2016-12-21T11:18:21.543Z,89.35
2016-12-21T11:19:21.503Z,88.87
2016-12-21T11:20:21.170Z,88.54
2016-12-21T11:21:21.118Z,88.82
2016-12-21T11:22:21.381Z,89.01
2016-12-21T11:23:21.340Z,88.26
2016-12-21T11:24:21.298Z,88.07
2016-12-21T11:25:20.955Z,88.17
2016-12-21T11:26:21.217Z,87.98
2016-12-21T11:27:21.174Z,87.88
2016-12-21T11:28:21.132Z,87.88
2016-12-21T11:29:21.088Z,87.88
2016-12-21T11:30:21.052Z,87.59
2016-12-21T11:31:20.706Z,87.98
2016-12-21T11:32:20.971Z,87.78
2016-12-21T11:33:20.925Z,88.17
2016-12-21T11:34:20.883Z,88.17
2016-12-21T11:35:20.843Z,88.17
2016-12-21T11:36:20.802Z,87.88
2016-12-21T11:37:20.762Z,87.5
2016-12-21T11:38:20.419Z,87.21
2016-12-21T11:39:20.681Z,87.12
2016-12-21T11:40:20.335Z,87.4
2016-12-21T11:41:20.596Z,87.4
2016-12-21T11:42:20.554Z,87.98
2016-12-21T11:43:20.513Z,87.69
2016-12-21T11:44:20.474Z,88.07
2016-12-21T11:45:20.133Z,87.31
2016-12-21T11:46:20.391Z,87.59
2016-12-21T11:47:20.352Z,87.02
2016-12-21T11:48:20.315Z,87.02
2016-12-21T11:49:19.969Z,87.21
2016-12-21T11:50:19.927Z,87.4
2016-12-21T11:51:20.193Z,87.31
2016-12-21T11:52:20.148Z,87.88
2016-12-21T11:53:20.105Z,87.88
2016-12-21T11:54:20.063Z,87.98
2016-12-21T11:55:20.025Z,87.98
2016-12-21T11:56:19.983Z,87.59
2016-12-21T11:57:19.943Z,87.59
2016-12-21T11:58:19.899Z,87.21
2016-12-21T11:59:19.856Z,87.12
2016-12-21T12:00:19.814Z,87.31
2016-12-21T12:01:19.476Z,87.69
2016-12-21T12:02:19.436Z,87.5
2016-12-21T12:03:19.696Z,87.21
2016-12-21T12:04:19.655Z,86.74
2016-12-21T12:05:19.613Z,87.12
2016-12-21T12:06:19.570Z,87.4
2016-12-21T12:07:19.227Z,87.12
2016-12-21T12:08:19.189Z,87.12
2016-12-21T12:09:19.146Z,86.93
2016-12-21T12:10:19.103Z,86.65
2016-12-21T12:11:19.367Z,86.65
2016-12-21T12:12:19.335Z,86.74
2016-12-21T12:13:19.284Z,87.17
2016-12-21T12:14:19.243Z,87.27
2016-12-21T12:15:19.203Z,87.36
2016-12-21T12:16:18.857Z,87.74
2016-12-21T12:17:19.118Z,87.74
2016-12-21T12:18:19.079Z,87.27
2016-12-21T12:19:19.038Z,87.27
2016-12-21T12:20:18.999Z,87.08
2016-12-21T12:21:18.957Z,87.17
2016-12-21T12:22:18.912Z,87.27
2016-12-21T12:23:18.871Z,87.65
2016-12-21T12:24:18.830Z,88.12
2016-12-21T12:25:18.492Z,88.21
2016-12-21T12:26:18.751Z,88.12
2016-12-21T12:27:18.706Z,87.46
2016-12-21T12:28:18.365Z,87.93
2016-12-21T12:29:18.327Z,87.84
2016-12-21T12:30:18.585Z,88.02
2016-12-21T12:31:18.545Z,87.55
2016-12-21T12:32:18.208Z,88.21
2016-12-21T12:33:18.468Z,88.12
2016-12-21T12:34:18.421Z,88.02
2016-12-21T12:35:18.376Z,88.4
2016-12-21T12:36:18.366Z,88.59
2016-12-21T12:37:18.303Z,88.49
2016-12-21T12:38:18.257Z,88.02
2016-12-21T12:39:18.219Z,88.4
2016-12-21T12:40:18.177Z,88.17
2016-12-21T12:41:18.145Z,88.07
2016-12-21T12:42:17.788Z,87.98
2016-12-21T12:43:18.052Z,87.98
2016-12-21T12:44:18.009Z,87.88
2016-12-21T12:45:17.965Z,87.4
2016-12-21T12:46:17.924Z,87.08
2016-12-21T12:47:17.584Z,86.98
2016-12-21T12:48:17.844Z,87.55
2016-12-21T12:49:17.806Z,87.93
2016-12-21T12:50:17.763Z,88.97
2016-12-21T12:51:17.720Z,88.78
2016-12-21T12:52:17.679Z,88.59
2016-12-21T12:53:17.638Z,89.16
2016-12-21T12:54:17.599Z,89.16
2016-12-21T12:55:17.562Z,89.16